createdAt,value
2022-10-01T00:00:48.761Z,11.25
2022-10-01T00:03:20.295Z,11.19
2022-10-01T00:06:00.492Z,10.90
2022-10-01T00:08:34.803Z,11.07
2022-10-01T00:11:10.215Z,11.05
2022-10-01T00:13:42.474Z,11.01
2022-10-01T00:16:15.872Z,11.08
2022-10-01T00:18:47.988Z,11.29
2022-10-01T00:21:22.046Z,11.31
2022-10-01T00:23:56.464Z,11.26
2022-10-01T00:26:28.766Z,11.20
2022-10-01T00:29:00.745Z,11.14
2022-10-01T00:31:32.083Z,11.32
2022-10-01T00:34:04.207Z,11.05
2022-10-01T00:36:36.328Z,11.09
2022-10-01T00:39:06.804Z,11.19
2022-10-01T00:41:38.095Z,11.12
2022-10-01T00:44:32.163Z,10.97
2022-10-01T00:47:07.689Z,11.27
2022-10-01T00:49:41.345Z,10.39
2022-10-01T00:52:20.558Z,11.17
2022-10-01T00:54:55.888Z,11.29
2022-10-01T00:57:27.939Z,11.17
2022-10-01T01:00:02.991Z,11.14
2022-10-01T01:02:33.981Z,11.06
2022-10-01T01:05:04.760Z,10.99
2022-10-01T01:07:37.378Z,11.04
2022-10-01T01:10:08.292Z,11.06
2022-10-01T01:13:01.845Z,10.83
2022-10-01T01:15:37.053Z,10.99
2022-10-01T01:18:11.619Z,10.95
2022-10-01T01:21:03.410Z,11.19
2022-10-01T01:23:55.515Z,10.94
2022-10-01T01:26:35.519Z,10.95
2022-10-01T01:29:17.225Z,11.09
2022-10-01T01:31:48.346Z,10.96
2022-10-01T01:34:27.446Z,11.17
2022-10-01T01:37:04.473Z,11.09
2022-10-01T01:39:36.117Z,11.22
2022-10-01T01:42:10.751Z,11.44
2022-10-01T01:44:45.880Z,11.10
2022-10-01T01:47:16.497Z,11.18
2022-10-01T01:49:50.369Z,11.11
2022-10-01T01:52:19.928Z,10.63
2022-10-01T01:54:51.322Z,11.30
2022-10-01T01:57:24.105Z,11.19
2022-10-01T01:59:55.396Z,11.41
2022-10-01T02:02:29.864Z,11.40
2022-10-01T02:05:03.607Z,11.26
2022-10-01T02:08:07.767Z,11.26
2022-10-01T02:10:51.627Z,11.42
2022-10-01T02:13:32.692Z,11.42
2022-10-01T02:16:16.489Z,11.44
2022-10-01T02:18:50.658Z,11.35
2022-10-01T02:21:29.287Z,11.16
2022-10-01T02:24:03.419Z,11.39
2022-10-01T02:26:34.002Z,11.55
2022-10-01T02:29:11.436Z,11.27
2022-10-01T02:31:42.928Z,11.42
2022-10-01T02:34:19.393Z,11.63
2022-10-01T02:36:50.889Z,11.56
2022-10-01T02:39:22.818Z,11.63
2022-10-01T02:41:55.533Z,11.44
2022-10-01T02:44:30.328Z,11.49
2022-10-01T02:47:07.932Z,11.72
2022-10-01T02:49:40.190Z,11.70
2022-10-01T02:52:17.104Z,11.74
2022-10-01T02:54:51.151Z,11.62
2022-10-01T02:57:29.771Z,11.39
2022-10-01T03:00:00.339Z,11.61
2022-10-01T03:02:33.124Z,11.52
2022-10-01T03:05:02.498Z,11.46
2022-10-01T03:07:37.210Z,11.71
2022-10-01T03:10:07.496Z,11.69
2022-10-01T03:12:36.861Z,11.81
2022-10-01T03:15:07.288Z,11.82
2022-10-01T03:17:38.277Z,11.65
2022-10-01T03:20:08.419Z,11.88
2022-10-01T03:22:37.701Z,12.01
2022-10-01T03:25:07.339Z,11.88
2022-10-01T03:27:36.285Z,12.06
2022-10-01T03:30:07.272Z,11.78
2022-10-01T03:32:38.185Z,11.86
2022-10-01T03:35:08.314Z,11.79
2022-10-01T03:37:37.538Z,11.83
2022-10-01T03:40:08.096Z,11.82
2022-10-01T03:42:37.022Z,11.82
2022-10-01T03:45:09.102Z,11.91
2022-10-01T03:47:39.977Z,11.47
2022-10-01T03:50:09.789Z,12.19
2022-10-01T03:52:42.230Z,12.04
2022-10-01T03:55:14.853Z,11.87
2022-10-01T03:57:46.220Z,12.17
2022-10-01T04:00:18.540Z,12.30
2022-10-01T04:02:48.897Z,12.30
2022-10-01T04:05:17.851Z,12.35
2022-10-01T04:07:48.679Z,12.32
2022-10-01T04:10:17.924Z,12.24
2022-10-01T04:12:47.203Z,12.32
2022-10-01T04:15:18.404Z,12.32
2022-10-01T04:17:48.861Z,12.40
2022-10-01T04:20:18.451Z,12.49
2022-10-01T04:22:50.271Z,12.32
2022-10-01T04:25:24.450Z,12.46
2022-10-01T04:27:59.455Z,12.50
2022-10-01T04:30:30.225Z,12.63
2022-10-01T04:33:03.184Z,12.31
2022-10-01T04:35:35.118Z,12.43
2022-10-01T04:38:08.490Z,11.82
2022-10-01T04:40:38.282Z,12.71
2022-10-01T04:43:09.847Z,12.76
2022-10-01T04:45:39.309Z,12.88
2022-10-01T04:48:12.180Z,12.68
2022-10-01T04:50:41.879Z,12.90
2022-10-01T04:53:10.983Z,12.78
2022-10-01T04:55:43.313Z,12.80
2022-10-01T04:58:12.039Z,12.70
2022-10-01T05:00:41.392Z,12.71
2022-10-01T05:03:11.963Z,12.75
2022-10-01T05:05:41.036Z,12.66
2022-10-01T05:08:11.905Z,12.68
2022-10-01T05:10:43.385Z,12.46
2022-10-01T05:13:12.786Z,12.49
2022-10-01T05:15:42.017Z,12.44
2022-10-01T05:18:12.682Z,12.52
2022-10-01T05:20:42.898Z,12.44
2022-10-01T05:23:11.998Z,11.61
2022-10-01T05:25:47.116Z,12.23
2022-10-01T05:28:22.357Z,12.40
2022-10-01T05:30:54.713Z,12.48
2022-10-01T05:33:25.177Z,12.62
2022-10-01T05:35:57.154Z,12.60
2022-10-01T05:38:26.403Z,12.47
2022-10-01T05:40:55.315Z,12.44
2022-10-01T05:43:27.097Z,12.46
2022-10-01T05:45:55.930Z,12.31
2022-10-01T05:48:26.327Z,12.07
2022-10-01T05:50:55.588Z,12.15
2022-10-01T05:53:24.369Z,12.23
2022-10-01T05:55:53.609Z,11.76
2022-10-01T05:58:22.276Z,12.14
2022-10-01T06:00:51.218Z,12.13
2022-10-01T06:03:19.975Z,12.22
2022-10-01T06:05:49.973Z,12.25
2022-10-01T06:08:19.481Z,11.37
2022-10-01T06:10:48.122Z,12.04
2022-10-01T06:13:19.663Z,12.19
2022-10-01T06:15:48.363Z,12.19
2022-10-01T06:18:19.928Z,12.05
2022-10-01T06:20:53.017Z,12.30
2022-10-01T06:23:21.773Z,12.44
2022-10-01T06:25:50.545Z,12.55
2022-10-01T06:28:19.327Z,12.55
2022-10-01T06:30:51.431Z,12.57
2022-10-01T06:33:20.937Z,12.27
2022-10-01T06:35:53.282Z,12.86
2022-10-01T06:38:23.998Z,12.78
2022-10-01T06:40:54.043Z,13.24
2022-10-01T06:43:27.377Z,13.30
2022-10-01T06:45:57.247Z,13.13
2022-10-01T06:48:26.585Z,13.00
2022-10-01T06:50:57.570Z,12.98
2022-10-01T06:53:28.735Z,12.95
2022-10-01T06:55:57.811Z,12.89
2022-10-01T06:58:27.425Z,12.96
2022-10-01T07:01:01.453Z,12.99
2022-10-01T07:03:31.235Z,13.10
2022-10-01T07:06:08.029Z,13.07
2022-10-01T07:08:37.565Z,12.78
2022-10-01T07:11:06.412Z,12.93
2022-10-01T07:13:35.080Z,13.09
2022-10-01T07:16:04.913Z,13.04
2022-10-01T07:18:34.433Z,12.95
2022-10-01T07:21:05.091Z,13.23
2022-10-01T07:23:33.831Z,13.56
2022-10-01T07:26:05.435Z,13.33
2022-10-01T07:28:34.499Z,13.55
2022-10-01T07:31:09.745Z,13.75
2022-10-01T07:33:40.477Z,13.62
2022-10-01T07:36:13.557Z,13.48
2022-10-01T07:38:45.217Z,13.58
2022-10-01T07:41:17.256Z,13.34
2022-10-01T07:43:49.914Z,13.40
2022-10-01T07:46:22.328Z,13.32
2022-10-01T07:48:51.547Z,13.46
2022-10-01T07:51:22.492Z,13.44
2022-10-01T07:53:52.202Z,13.53
2022-10-01T07:56:21.983Z,13.10
2022-10-01T07:58:51.664Z,13.62
2022-10-01T08:01:21.426Z,13.53
2022-10-01T08:03:51.831Z,13.46
2022-10-01T08:06:25.754Z,13.55
2022-10-01T08:08:55.164Z,13.67
2022-10-01T08:11:24.782Z,13.71
2022-10-01T08:13:56.131Z,14.01
2022-10-01T08:16:29.159Z,14.07
2022-10-01T08:18:57.828Z,14.27
2022-10-01T08:21:30.637Z,14.50
2022-10-01T08:24:01.865Z,14.72
2022-10-01T08:26:30.616Z,14.85
2022-10-01T08:28:59.602Z,15.25
2022-10-01T08:31:30.547Z,15.24
2022-10-01T08:33:59.312Z,15.09
2022-10-01T08:36:28.354Z,15.28
2022-10-01T08:39:02.703Z,15.49
2022-10-01T08:41:43.705Z,15.68
2022-10-01T08:44:23.276Z,15.71
2022-10-01T08:46:53.642Z,15.43
2022-10-01T08:49:28.021Z,15.49
2022-10-01T08:52:00.778Z,15.28
2022-10-01T08:54:38.132Z,15.14
2022-10-01T08:57:13.205Z,15.14
2022-10-01T08:59:44.820Z,15.08
2022-10-01T09:02:25.704Z,15.52
2022-10-01T09:05:01.633Z,14.74
2022-10-01T09:07:49.721Z,15.79
2022-10-01T09:10:29.022Z,16.17
2022-10-01T09:13:19.781Z,16.24
2022-10-01T09:15:57.862Z,16.24
2022-10-01T09:18:38.944Z,16.36
2022-10-01T09:21:18.267Z,16.30
2022-10-01T09:23:57.755Z,15.97
2022-10-01T09:26:27.783Z,15.72
2022-10-01T09:29:00.180Z,15.63
2022-10-01T09:31:37.710Z,15.52
2022-10-01T09:34:14.586Z,15.95
2022-10-01T09:36:55.522Z,16.21
2022-10-01T09:39:31.152Z,16.25
2022-10-01T09:42:01.937Z,16.36
2022-10-01T09:44:33.838Z,16.18
2022-10-01T09:47:03.792Z,15.92
2022-10-01T09:49:36.405Z,15.98
2022-10-01T09:52:12.228Z,15.79
2022-10-01T09:54:48.644Z,16.47
2022-10-01T09:57:26.293Z,16.08
2022-10-01T10:00:03.742Z,16.98
2022-10-01T10:02:37.747Z,16.93
2022-10-01T10:05:09.927Z,16.93
2022-10-01T10:07:42.291Z,16.87
2022-10-01T10:10:23.284Z,16.78
2022-10-01T10:13:00.257Z,16.35
2022-10-01T10:15:31.878Z,16.43
2022-10-01T10:18:08.492Z,16.23
2022-10-01T10:20:41.798Z,16.13
2022-10-01T10:23:15.379Z,15.99
2022-10-01T10:25:55.710Z,15.98
2022-10-01T10:28:29.968Z,16.16
2022-10-01T10:30:59.100Z,16.25
2022-10-01T10:33:27.776Z,16.26
2022-10-01T10:36:03.473Z,16.36
2022-10-01T10:38:35.132Z,16.48
2022-10-01T10:41:06.268Z,16.73
2022-10-01T10:43:39.366Z,16.92
2022-10-01T10:46:10.037Z,17.21
2022-10-01T10:48:45.086Z,17.45
2022-10-01T10:51:13.828Z,17.37
2022-10-01T10:53:45.075Z,17.27
2022-10-01T10:56:22.995Z,17.09
2022-10-01T10:58:54.079Z,16.89
2022-10-01T11:01:29.716Z,16.55
2022-10-01T11:04:00.466Z,16.72
2022-10-01T11:06:31.890Z,16.68
2022-10-01T11:09:08.766Z,16.82
2022-10-01T11:11:47.347Z,16.70
2022-10-01T11:14:34.153Z,16.60
2022-10-01T11:17:31.041Z,16.44
2022-10-01T11:20:18.569Z,16.35
2022-10-01T11:23:05.173Z,16.75
2022-10-01T11:25:44.871Z,16.85
2022-10-01T11:28:33.552Z,17.00
2022-10-01T11:31:14.950Z,16.81
2022-10-01T11:33:57.952Z,16.58
2022-10-01T11:36:32.275Z,16.55
2022-10-01T11:39:04.967Z,16.56
2022-10-01T11:41:38.315Z,16.50
2022-10-01T11:44:15.480Z,16.20
2022-10-01T11:46:53.589Z,15.98
2022-10-01T11:49:36.799Z,15.90
2022-10-01T11:52:15.899Z,16.13
2022-10-01T11:54:57.348Z,16.41
2022-10-01T11:57:45.291Z,16.45
2022-10-01T12:00:16.004Z,16.58
2022-10-01T12:02:53.964Z,16.83
2022-10-01T12:05:26.816Z,16.72
2022-10-01T12:07:57.957Z,17.14
2022-10-01T12:10:38.783Z,17.29
2022-10-01T12:13:15.967Z,17.21
2022-10-01T12:15:53.053Z,17.23
2022-10-01T12:18:29.283Z,17.39
2022-10-01T12:21:03.607Z,17.46
2022-10-01T12:23:37.243Z,17.62
2022-10-01T12:26:18.721Z,17.59
2022-10-01T12:29:00.129Z,17.32
2022-10-01T12:31:36.816Z,17.36
2022-10-01T12:34:16.669Z,17.59
2022-10-01T12:36:54.351Z,17.63
2022-10-01T12:39:45.176Z,17.45
2022-10-01T12:42:33.182Z,17.30
2022-10-01T12:45:12.710Z,17.19
2022-10-01T12:47:48.405Z,17.16
2022-10-01T12:50:35.359Z,17.28
2022-10-01T12:53:20.562Z,17.35
2022-10-01T12:55:59.211Z,17.27
2022-10-01T12:58:46.381Z,17.27
2022-10-01T13:01:25.522Z,17.22
2022-10-01T13:04:25.204Z,17.26
2022-10-01T13:07:18.800Z,17.35
2022-10-01T13:09:58.623Z,17.06
2022-10-01T13:12:45.403Z,17.23
2022-10-01T13:15:18.513Z,17.34
2022-10-01T13:17:59.414Z,17.40
2022-10-01T13:20:34.993Z,17.39
2022-10-01T13:23:10.008Z,17.63
2022-10-01T13:25:49.038Z,17.70
2022-10-01T13:28:27.773Z,17.61
2022-10-01T13:31:02.660Z,17.78
2022-10-01T13:33:36.047Z,17.75
2022-10-01T13:36:06.979Z,17.41
2022-10-01T13:38:43.883Z,17.74
2022-10-01T13:41:22.200Z,17.96
2022-10-01T13:43:59.130Z,17.99
2022-10-01T13:46:31.393Z,17.98
2022-10-01T13:49:08.445Z,17.88
2022-10-01T13:51:38.583Z,17.91
2022-10-01T13:54:18.706Z,17.84
2022-10-01T13:56:49.954Z,17.80
2022-10-01T13:59:31.956Z,17.85
2022-10-01T14:02:02.691Z,17.72
2022-10-01T14:04:38.650Z,17.48
2022-10-01T14:07:16.880Z,17.48
2022-10-01T14:09:49.884Z,17.31
2022-10-01T14:12:43.523Z,17.56
2022-10-01T14:15:35.675Z,17.32
2022-10-01T14:18:08.467Z,16.90
2022-10-01T14:20:55.237Z,17.26
2022-10-01T14:23:33.469Z,17.17
2022-10-01T14:26:12.411Z,17.28
2022-10-01T14:28:54.350Z,17.16
2022-10-01T14:31:37.293Z,16.15
2022-10-01T14:34:30.560Z,16.88
2022-10-01T14:37:00.062Z,16.85
2022-10-01T14:39:30.087Z,16.91
2022-10-01T14:42:16.443Z,16.99
2022-10-01T14:44:47.944Z,16.98
2022-10-01T14:47:20.964Z,17.11
2022-10-01T14:49:51.669Z,16.91
2022-10-01T14:52:25.521Z,17.14
2022-10-01T14:55:02.335Z,17.13
2022-10-01T14:57:36.329Z,17.46
2022-10-01T15:00:10.788Z,17.57
2022-10-01T15:02:46.932Z,17.56
2022-10-01T15:05:24.974Z,17.46
2022-10-01T15:07:53.878Z,17.28
2022-10-01T15:10:26.200Z,16.36
2022-10-01T15:12:58.812Z,17.21
2022-10-01T15:15:32.410Z,17.18
2022-10-01T15:18:05.106Z,17.29
2022-10-01T15:20:33.897Z,17.19
2022-10-01T15:23:06.727Z,17.04
2022-10-01T15:25:35.419Z,17.16
2022-10-01T15:28:15.710Z,16.86
2022-10-01T15:30:46.629Z,16.91
2022-10-01T15:33:27.573Z,16.69
2022-10-01T15:35:59.038Z,16.88
2022-10-01T15:38:30.978Z,16.69
2022-10-01T15:41:19.647Z,16.48
2022-10-01T15:43:52.578Z,16.54
2022-10-01T15:46:32.772Z,16.60
2022-10-01T15:49:25.208Z,16.27
2022-10-01T15:52:15.921Z,16.27
2022-10-01T15:54:47.059Z,16.08
2022-10-01T15:57:21.915Z,16.33
2022-10-01T15:59:55.203Z,16.25
2022-10-01T16:02:29.878Z,16.13
2022-10-01T16:05:05.623Z,16.20
2022-10-01T16:07:34.898Z,16.14
2022-10-01T16:10:17.751Z,15.91
2022-10-01T16:12:46.503Z,15.89
2022-10-01T16:15:37.654Z,15.76
2022-10-01T16:18:23.190Z,15.84
2022-10-01T16:20:58.417Z,16.06
2022-10-01T16:23:34.854Z,15.88
2022-10-01T16:26:05.255Z,16.10
2022-10-01T16:28:37.157Z,16.00
2022-10-01T16:31:07.843Z,15.78
2022-10-01T16:33:39.718Z,15.81
2022-10-01T16:36:11.021Z,15.58
2022-10-01T16:38:40.219Z,14.79
2022-10-01T16:41:11.279Z,15.77
2022-10-01T16:43:40.436Z,15.94
2022-10-01T16:46:11.138Z,15.86
2022-10-01T16:48:40.596Z,15.86
2022-10-01T16:51:09.937Z,15.56
2022-10-01T16:53:39.450Z,15.33
2022-10-01T16:56:08.253Z,15.71
2022-10-01T16:58:38.385Z,15.80
2022-10-01T17:01:08.640Z,15.61
2022-10-01T17:03:38.748Z,15.60
2022-10-01T17:06:07.920Z,15.41
2022-10-01T17:08:39.340Z,15.46
2022-10-01T17:11:12.437Z,15.30
2022-10-01T17:13:42.296Z,15.24
2022-10-01T17:16:10.974Z,15.47
2022-10-01T17:18:43.852Z,15.16
2022-10-01T17:21:12.935Z,15.14
2022-10-01T17:23:41.633Z,15.19
2022-10-01T17:26:10.413Z,15.13
2022-10-01T17:28:39.109Z,14.97
2022-10-01T17:31:08.992Z,14.93
2022-10-01T17:33:41.465Z,15.06
2022-10-01T17:36:13.990Z,14.96
2022-10-01T17:38:45.028Z,14.88
2022-10-01T17:41:14.078Z,14.89
2022-10-01T17:43:45.913Z,14.92
2022-10-01T17:46:14.717Z,14.90
2022-10-01T17:48:44.803Z,14.72
2022-10-01T17:51:15.694Z,14.64
2022-10-01T17:53:45.173Z,14.68
2022-10-01T17:56:18.082Z,14.82
2022-10-01T17:58:47.996Z,13.82
2022-10-01T18:01:19.968Z,14.79
2022-10-01T18:03:55.203Z,14.68
2022-10-01T18:06:23.934Z,14.95
2022-10-01T18:08:56.702Z,14.86
2022-10-01T18:11:27.093Z,14.78
2022-10-01T18:13:58.242Z,14.78
2022-10-01T18:16:28.069Z,13.84
2022-10-01T18:21:52.105Z,14.42
2022-10-01T18:24:23.587Z,14.50
2022-10-01T18:26:53.052Z,14.39
2022-10-01T18:29:25.342Z,14.14
2022-10-01T18:31:56.370Z,13.99
2022-10-01T18:34:33.518Z,13.23
2022-10-01T18:37:06.801Z,14.00
2022-10-01T18:39:41.174Z,14.15
2022-10-01T18:42:19.605Z,14.26
2022-10-01T18:44:53.867Z,14.31
2022-10-01T18:47:35.701Z,14.27
2022-10-01T18:50:17.885Z,14.37
2022-10-01T18:52:58.757Z,14.47
2022-10-01T18:56:01.791Z,14.20
2022-10-01T18:58:50.936Z,14.14
2022-10-01T19:01:31.234Z,14.16
2022-10-01T19:04:35.582Z,14.17
2022-10-01T19:07:24.298Z,14.16
2022-10-01T19:10:03.264Z,14.00
2022-10-01T19:12:47.964Z,13.58
2022-10-01T19:15:26.957Z,14.08
2022-10-01T19:18:19.139Z,14.06
2022-10-01T19:20:59.362Z,14.08
2022-10-01T19:23:46.496Z,14.10
2022-10-01T19:26:24.022Z,13.99
2022-10-01T19:29:07.778Z,13.97
2022-10-01T19:31:46.358Z,14.06
2022-10-01T19:34:27.212Z,13.94
2022-10-01T19:37:00.949Z,14.00
2022-10-01T19:39:38.773Z,13.86
2022-10-01T19:42:13.902Z,13.71
2022-10-01T19:44:51.421Z,13.93
2022-10-01T19:47:28.636Z,13.77
2022-10-01T19:50:06.453Z,13.91
2022-10-01T19:52:39.831Z,13.88
2022-10-01T19:55:17.018Z,13.77
2022-10-01T19:57:46.834Z,13.75
2022-10-01T20:00:19.538Z,13.23
2022-10-01T20:02:51.831Z,13.85
2022-10-01T20:05:28.912Z,13.89
2022-10-01T20:08:06.970Z,13.80
2022-10-01T20:10:42.816Z,13.76
2022-10-01T20:13:37.151Z,13.86
2022-10-01T20:16:16.451Z,13.70
2022-10-01T20:18:52.518Z,13.82
2022-10-01T20:21:34.440Z,13.77
2022-10-01T20:24:21.489Z,13.72
2022-10-01T20:26:56.787Z,13.87
2022-10-01T20:29:39.204Z,13.93
2022-10-01T20:32:16.253Z,13.69
2022-10-01T20:34:56.971Z,13.78
2022-10-01T20:37:39.367Z,13.69
2022-10-01T20:40:18.889Z,13.76
2022-10-01T20:42:51.528Z,13.14
2022-10-01T20:45:25.678Z,13.86
2022-10-01T20:48:00.506Z,13.80
2022-10-01T20:50:34.243Z,13.84
2022-10-01T20:53:17.421Z,13.96
2022-10-01T20:55:51.616Z,13.82
2022-10-01T20:58:27.850Z,13.83
2022-10-01T21:01:05.337Z,13.78
2022-10-01T21:03:42.811Z,13.75
2022-10-01T21:06:18.248Z,13.57
2022-10-01T21:08:52.376Z,13.57
2022-10-01T21:11:29.518Z,13.77
2022-10-01T21:14:13.239Z,13.67
2022-10-01T21:16:56.677Z,13.56
2022-10-01T21:19:37.836Z,13.77
2022-10-01T21:22:19.213Z,13.71
2022-10-01T21:24:59.173Z,13.72
2022-10-01T21:27:47.982Z,13.50
2022-10-01T21:30:20.399Z,13.42
2022-10-01T21:33:13.200Z,13.30
2022-10-01T21:35:52.706Z,13.62
2022-10-01T21:38:32.000Z,13.29
2022-10-01T21:41:17.653Z,13.52
2022-10-01T21:43:58.684Z,13.46
2022-10-01T21:46:40.979Z,13.58
2022-10-01T21:49:21.429Z,13.50
2022-10-01T21:52:00.204Z,13.48
2022-10-01T21:55:06.886Z,13.41
2022-10-01T21:57:48.839Z,13.50
2022-10-01T22:00:22.415Z,13.44
2022-10-01T22:03:12.347Z,13.33
2022-10-01T22:05:50.707Z,13.28
2022-10-01T22:08:32.424Z,13.43
2022-10-01T22:11:09.172Z,13.48
2022-10-01T22:13:43.381Z,13.58
2022-10-01T22:16:16.990Z,13.32
2022-10-01T22:18:50.748Z,13.63
2022-10-01T22:21:24.834Z,13.59
2022-10-01T22:24:00.276Z,13.60
2022-10-01T22:26:33.780Z,13.84
2022-10-01T22:29:06.219Z,13.63
2022-10-01T22:31:37.669Z,13.42
2022-10-01T22:34:13.677Z,13.70
2022-10-01T22:36:48.908Z,13.74
2022-10-01T22:39:23.107Z,13.71
2022-10-01T22:41:59.052Z,13.62
2022-10-01T22:44:29.341Z,13.52
2022-10-01T22:47:32.413Z,13.33
2022-10-01T22:50:30.573Z,13.28
2022-10-01T22:53:14.081Z,13.32
2022-10-01T22:55:52.017Z,13.30
2022-10-01T22:58:49.126Z,13.10
2022-10-01T23:01:30.635Z,13.14
2022-10-01T23:04:12.094Z,13.28
2022-10-01T23:06:53.818Z,13.27
2022-10-01T23:09:31.557Z,13.11
2022-10-01T23:12:10.167Z,13.15
2022-10-01T23:14:59.349Z,13.12
2022-10-01T23:17:36.269Z,13.14
2022-10-01T23:20:17.796Z,12.95
2022-10-01T23:23:08.092Z,12.99
2022-10-01T23:25:50.462Z,13.09
2022-10-01T23:28:33.689Z,13.10
2022-10-01T23:31:11.837Z,12.83
2022-10-01T23:33:52.405Z,13.03
2022-10-01T23:36:34.105Z,13.16
2022-10-01T23:39:42.003Z,13.05
2022-10-01T23:42:30.188Z,13.16
2022-10-01T23:45:17.662Z,13.11
2022-10-01T23:47:56.684Z,13.45
2022-10-01T23:50:33.911Z,13.45
2022-10-01T23:53:13.065Z,13.30
2022-10-01T23:56:10.417Z,13.31
2022-10-01T23:58:47.341Z,13.25
